createdAt,value
2023-03-03T00:02:07.258Z,97941.66
2023-03-03T00:04:35.283Z,97950.09
2023-03-03T00:07:03.526Z,97944.50
2023-03-03T00:09:31.437Z,97933.38
2023-03-03T00:12:00.176Z,97943.06
2023-03-03T00:14:32.619Z,97954.41
2023-03-03T00:17:02.500Z,97958.50
2023-03-03T00:19:30.818Z,97955.81
2023-03-03T00:21:59.374Z,97952.09
2023-03-03T00:24:37.873Z,97953.97
2023-03-03T00:27:32.339Z,97953.13
2023-03-03T00:30:01.286Z,97965.56
2023-03-03T00:32:51.321Z,97962.88
2023-03-03T00:35:28.240Z,97953.38
2023-03-03T00:38:11.479Z,97957.53
2023-03-03T00:40:39.914Z,97960.03
2023-03-03T00:43:35.527Z,97963.75
2023-03-03T00:46:03.725Z,97961.69
2023-03-03T00:48:37.879Z,97969.53
2023-03-03T00:51:38.264Z,97951.59
2023-03-03T00:54:06.275Z,97952.81
2023-03-03T00:56:34.744Z,97952.00
2023-03-03T00:59:03.117Z,97953.03
2023-03-03T01:01:31.206Z,97929.34
2023-03-03T01:03:59.491Z,97939.41
2023-03-03T01:06:28.418Z,97933.22
2023-03-03T01:08:58.177Z,97924.59
2023-03-03T01:11:26.952Z,97921.53
2023-03-03T01:13:55.684Z,97914.13
2023-03-03T01:16:24.168Z,97919.28
2023-03-03T01:18:52.439Z,97916.59
2023-03-03T01:21:20.394Z,97917.38
2023-03-03T01:23:48.811Z,97915.72
2023-03-03T01:26:16.944Z,97910.53
2023-03-03T01:28:45.128Z,97895.84
2023-03-03T01:31:14.090Z,97890.47
2023-03-03T01:33:42.576Z,97885.31
2023-03-03T01:36:10.515Z,97882.22
2023-03-03T01:38:38.518Z,97885.50
2023-03-03T01:41:07.211Z,97881.78
2023-03-03T01:43:35.044Z,97870.22
2023-03-03T01:46:03.346Z,97874.34
2023-03-03T01:48:44.050Z,97874.34
2023-03-03T01:51:22.036Z,97864.88
2023-03-03T01:53:58.494Z,97866.06
2023-03-03T01:56:27.350Z,97856.53
2023-03-03T01:59:02.716Z,97864.13
2023-03-03T02:01:31.413Z,97869.00
2023-03-03T02:04:00.113Z,97871.56
2023-03-03T02:06:31.572Z,97850.44
2023-03-03T02:09:30.359Z,97864.34
2023-03-03T02:12:01.336Z,97867.13
2023-03-03T02:14:29.234Z,97857.94
2023-03-03T02:16:57.207Z,97863.56
2023-03-03T02:19:36.632Z,97862.72
2023-03-03T02:22:04.749Z,97856.03
2023-03-03T02:24:54.441Z,97859.84
2023-03-03T02:27:22.350Z,97870.94
2023-03-03T02:29:50.448Z,97875.56
2023-03-03T02:32:18.657Z,97871.81
2023-03-03T02:34:51.894Z,97872.28
2023-03-03T02:37:20.648Z,97873.03
2023-03-03T02:39:48.497Z,97864.16
2023-03-03T02:42:18.364Z,97874.94
2023-03-03T02:44:51.309Z,97882.31
2023-03-03T02:47:19.280Z,97871.22
2023-03-03T02:49:47.072Z,97870.06
2023-03-03T02:52:15.583Z,97872.75
2023-03-03T02:54:46.337Z,97861.16
2023-03-03T02:57:14.426Z,97869.38
2023-03-03T02:59:42.904Z,97867.81
2023-03-03T03:02:17.384Z,97868.41
2023-03-03T03:04:46.393Z,97861.03
2023-03-03T03:07:18.609Z,97840.72
2023-03-03T03:09:47.577Z,97833.31
2023-03-03T03:12:16.412Z,97826.81
2023-03-03T03:14:44.820Z,97823.97
2023-03-03T03:17:13.204Z,97816.31
2023-03-03T03:19:41.896Z,97819.44
2023-03-03T03:22:09.771Z,97814.50
2023-03-03T03:24:37.932Z,97803.16
2023-03-03T03:27:09.284Z,97807.09
2023-03-03T03:29:37.736Z,97798.59
2023-03-03T03:32:06.836Z,97798.13
2023-03-03T03:34:35.539Z,97785.09
2023-03-03T03:37:04.834Z,97792.97
2023-03-03T03:39:32.923Z,97779.78
2023-03-03T03:42:00.859Z,97779.22
2023-03-03T03:44:29.065Z,97760.31
2023-03-03T03:46:57.289Z,97775.34
2023-03-03T03:49:25.910Z,97768.41
2023-03-03T03:51:56.308Z,97751.97
2023-03-03T03:54:27.869Z,97743.53
2023-03-03T03:56:56.096Z,97746.81
2023-03-03T03:59:25.003Z,97749.34
2023-03-03T04:01:53.421Z,97745.78
2023-03-03T04:04:23.302Z,97738.81
2023-03-03T04:06:51.394Z,97734.25
2023-03-03T04:09:22.935Z,97732.53
2023-03-03T04:11:51.161Z,97727.44
2023-03-03T04:14:19.926Z,97717.56
2023-03-03T04:16:47.920Z,97712.19
2023-03-03T04:19:15.666Z,97704.69
2023-03-03T04:21:44.611Z,97708.41
2023-03-03T04:24:12.581Z,97698.19
2023-03-03T04:26:41.087Z,97691.31
2023-03-03T04:29:11.013Z,97688.06
2023-03-03T04:31:41.160Z,97679.94
2023-03-03T04:34:10.875Z,97693.94
2023-03-03T04:36:39.567Z,97689.47
2023-03-03T04:39:07.735Z,97686.13
2023-03-03T04:41:36.115Z,97680.19
2023-03-03T04:44:04.874Z,97677.56
2023-03-03T04:46:32.860Z,97677.50
2023-03-03T04:49:02.036Z,97673.66
2023-03-03T04:51:30.232Z,97682.03
2023-03-03T04:53:58.507Z,97668.78
2023-03-03T04:56:26.834Z,97661.41
2023-03-03T04:58:55.191Z,97663.81
2023-03-03T05:01:23.623Z,97649.22
2023-03-03T05:03:51.448Z,97644.09
2023-03-03T05:06:19.850Z,97634.66
2023-03-03T05:08:47.673Z,97637.31
2023-03-03T05:11:15.930Z,97622.72
2023-03-03T05:13:43.849Z,97619.22
2023-03-03T05:16:11.835Z,97615.47
2023-03-03T05:18:39.968Z,97602.03
2023-03-03T05:21:08.012Z,97602.59
2023-03-03T05:23:36.636Z,97594.00
2023-03-03T05:26:04.816Z,97603.53
2023-03-03T05:28:33.913Z,97593.25
2023-03-03T05:31:02.025Z,97607.06
2023-03-03T05:33:30.607Z,97593.88
2023-03-03T05:35:58.692Z,97582.59
2023-03-03T05:38:26.981Z,97576.66
2023-03-03T05:40:55.675Z,97588.84
2023-03-03T05:43:23.459Z,97577.25
2023-03-03T05:46:00.761Z,97591.13
2023-03-03T05:48:29.068Z,97582.75
2023-03-03T05:51:00.619Z,97583.31
2023-03-03T05:53:28.986Z,97565.94
2023-03-03T05:55:57.044Z,97572.22
2023-03-03T05:58:25.394Z,97575.47
2023-03-03T06:00:53.430Z,97570.63
2023-03-03T06:03:21.545Z,97575.31
2023-03-03T06:05:49.658Z,97580.75
2023-03-03T06:08:17.866Z,97577.81
2023-03-03T06:10:45.794Z,97572.38
2023-03-03T06:13:15.712Z,97572.66
2023-03-03T06:15:43.764Z,97574.84
2023-03-03T06:18:12.175Z,97582.72
2023-03-03T06:20:40.080Z,97581.38
2023-03-03T06:23:08.658Z,97579.72
2023-03-03T06:25:37.000Z,97594.94
2023-03-03T06:28:05.149Z,97607.41
2023-03-03T06:30:33.000Z,97598.97
2023-03-03T06:33:01.250Z,97601.16
2023-03-03T06:35:29.424Z,97601.69
2023-03-03T06:37:57.571Z,97603.31
2023-03-03T06:40:25.265Z,97597.63
2023-03-03T06:42:53.457Z,97607.38
2023-03-03T06:45:21.788Z,97612.53
2023-03-03T06:47:51.574Z,97611.44
2023-03-03T06:50:20.305Z,97620.41
2023-03-03T06:52:48.867Z,97611.19
2023-03-03T06:55:22.140Z,97609.84
2023-03-03T06:57:50.038Z,97600.63
2023-03-03T07:00:25.077Z,97610.63
2023-03-03T07:03:15.018Z,97597.91
2023-03-03T07:05:43.007Z,97610.91
2023-03-03T07:08:19.184Z,97621.47
2023-03-03T07:10:47.378Z,97622.00
2023-03-03T07:13:26.085Z,97614.13
2023-03-03T07:15:55.201Z,97614.44
2023-03-03T07:18:53.558Z,97600.31
2023-03-03T07:21:35.856Z,97598.44
2023-03-03T07:24:28.418Z,97578.63
2023-03-03T07:27:24.928Z,97582.38
2023-03-03T07:29:54.580Z,97582.38
2023-03-03T07:32:47.657Z,97582.34
2023-03-03T07:35:38.263Z,97582.25
2023-03-03T07:38:31.068Z,97572.72
2023-03-03T07:41:01.421Z,97560.25
2023-03-03T07:43:38.590Z,97569.94
2023-03-03T07:46:10.571Z,97571.56
2023-03-03T07:48:40.634Z,97585.03
2023-03-03T07:51:42.341Z,97585.84
2023-03-03T07:54:36.171Z,97583.13
2023-03-03T07:57:15.823Z,97574.22
2023-03-03T07:59:54.962Z,97579.09
2023-03-03T08:02:29.044Z,97577.44
2023-03-03T08:04:57.451Z,97574.19
2023-03-03T08:07:25.537Z,97571.22
2023-03-03T08:10:01.090Z,97572.38
2023-03-03T08:12:42.368Z,97571.56
2023-03-03T08:15:22.383Z,97574.00
2023-03-03T08:17:51.120Z,97549.56
2023-03-03T08:20:37.603Z,97561.53
2023-03-03T08:23:05.749Z,97554.75
2023-03-03T08:25:33.531Z,97553.69
2023-03-03T08:28:01.577Z,97541.28
2023-03-03T08:30:29.451Z,97539.94
2023-03-03T08:32:57.587Z,97532.13
2023-03-03T08:35:25.426Z,97528.63
2023-03-03T08:37:53.490Z,97529.47
2023-03-03T08:40:21.536Z,97530.88
2023-03-03T08:42:49.608Z,97523.84
2023-03-03T08:45:18.309Z,97522.75
2023-03-03T08:47:46.448Z,97523.31
2023-03-03T08:50:15.378Z,97526.25
2023-03-03T08:52:43.387Z,97514.34
2023-03-03T08:55:12.029Z,97513.25
2023-03-03T08:57:40.142Z,97516.50
2023-03-03T09:00:10.318Z,97525.72
2023-03-03T09:02:38.468Z,97531.72
2023-03-03T09:05:07.334Z,97531.16
2023-03-03T09:07:35.191Z,97541.75
2023-03-03T09:10:03.416Z,97544.44
2023-03-03T09:12:37.097Z,97552.06
2023-03-03T09:15:35.026Z,97542.28
2023-03-03T09:18:23.864Z,97548.53
2023-03-03T09:20:53.056Z,97543.63
2023-03-03T09:23:39.621Z,97554.75
2023-03-03T09:26:32.605Z,97555.84
2023-03-03T09:29:16.254Z,97550.44
2023-03-03T09:31:49.395Z,97559.38
2023-03-03T09:34:20.961Z,97555.84
2023-03-03T09:36:50.018Z,97557.47
2023-03-03T09:39:28.466Z,97542.50
2023-03-03T09:42:12.421Z,97558.69
2023-03-03T09:45:02.318Z,97546.44
2023-03-03T09:47:58.418Z,97552.94
2023-03-03T09:50:29.389Z,97546.38
2023-03-03T09:53:07.730Z,97549.84
2023-03-03T09:55:40.952Z,97543.81
2023-03-03T09:58:24.896Z,97549.00
2023-03-03T10:00:56.132Z,97547.94
2023-03-03T10:03:48.484Z,97548.47
2023-03-03T10:06:34.134Z,97547.06
2023-03-03T10:09:20.894Z,97552.53
2023-03-03T10:12:14.977Z,97555.84
2023-03-03T10:15:14.582Z,97558.31
2023-03-03T10:17:49.553Z,97553.72
2023-03-03T10:20:40.408Z,97554.53
2023-03-03T10:23:53.741Z,97531.53
2023-03-03T10:27:01.341Z,97550.22
2023-03-03T10:29:45.221Z,97550.44
2023-03-03T10:33:10.026Z,97539.88
2023-03-03T10:36:07.128Z,97543.06
2023-03-03T10:39:26.404Z,97533.03
2023-03-03T10:42:15.788Z,97542.25
2023-03-03T10:44:43.977Z,97540.38
2023-03-03T10:47:36.229Z,97534.72
2023-03-03T10:50:11.289Z,97525.53
2023-03-03T10:52:59.067Z,97520.91
2023-03-03T10:55:39.650Z,97519.25
2023-03-03T10:58:27.603Z,97501.00
2023-03-03T11:01:02.547Z,97506.63
2023-03-03T11:03:37.176Z,97507.59
2023-03-03T11:06:23.164Z,97492.50
2023-03-03T11:09:04.112Z,97489.69
2023-03-03T11:11:46.779Z,97497.22
2023-03-03T11:14:17.273Z,97486.47
2023-03-03T11:16:59.769Z,97483.44
2023-03-03T11:19:42.005Z,97479.53
2023-03-03T11:22:12.749Z,97475.06
2023-03-03T11:25:02.374Z,97467.31
2023-03-03T11:27:56.650Z,97474.19
2023-03-03T11:30:30.564Z,97472.97
2023-03-03T11:33:13.251Z,97467.53
2023-03-03T11:35:50.346Z,97483.97
2023-03-03T11:38:39.781Z,97477.44
2023-03-03T11:41:13.816Z,97470.91
2023-03-03T11:43:50.634Z,97474.13
2023-03-03T11:46:47.808Z,97446.59
2023-03-03T11:49:23.001Z,97450.34
2023-03-03T11:51:53.716Z,97445.75
2023-03-03T11:54:54.158Z,97440.69
2023-03-03T11:57:23.881Z,97438.75
2023-03-03T12:00:09.912Z,97449.28
2023-03-03T12:02:59.414Z,97458.63
2023-03-03T12:05:48.196Z,97466.72
2023-03-03T12:08:34.585Z,97474.47
2023-03-03T12:11:28.478Z,97476.34
2023-03-03T12:14:38.285Z,97459.59
2023-03-03T12:17:18.352Z,97460.59
2023-03-03T12:20:17.891Z,97456.19
2023-03-03T12:23:06.938Z,97453.38
2023-03-03T12:25:44.237Z,97442.50
2023-03-03T12:28:29.122Z,97429.47
2023-03-03T12:31:24.503Z,97421.94
2023-03-03T12:33:54.310Z,97418.69
2023-03-03T12:36:32.650Z,97423.53
2023-03-03T12:39:13.551Z,97424.66
2023-03-03T12:41:56.933Z,97417.31
2023-03-03T12:44:26.781Z,97422.75
2023-03-03T12:47:02.364Z,97419.25
2023-03-03T12:49:48.072Z,97413.84
2023-03-03T12:52:46.885Z,97404.66
2023-03-03T12:55:35.834Z,97386.75
2023-03-03T12:58:04.089Z,97387.00
2023-03-03T13:00:40.613Z,97395.28
2023-03-03T13:03:55.790Z,97402.31
2023-03-03T13:06:31.303Z,97382.06
2023-03-03T13:09:36.657Z,97370.94
2023-03-03T13:12:23.460Z,97382.78
2023-03-03T13:15:00.862Z,97370.38
2023-03-03T13:17:33.212Z,97353.66
2023-03-03T13:20:03.632Z,97350.94
2023-03-03T13:22:46.271Z,97325.06
2023-03-03T13:25:34.546Z,97308.66
2023-03-03T13:28:13.266Z,97306.72
2023-03-03T13:30:55.375Z,97289.44
2023-03-03T13:33:34.888Z,97308.75
2023-03-03T13:36:12.641Z,97298.22
2023-03-03T13:38:50.467Z,97290.66
2023-03-03T13:41:51.312Z,97288.97
2023-03-03T13:44:28.684Z,97283.03
2023-03-03T13:47:02.442Z,97276.81
2023-03-03T13:49:52.614Z,97245.22
2023-03-03T13:52:25.250Z,97239.47
2023-03-03T13:55:31.781Z,97226.19
2023-03-03T13:58:12.706Z,97221.16
2023-03-03T14:00:59.956Z,97216.53
2023-03-03T14:03:52.826Z,97200.00
2023-03-03T14:06:23.820Z,97190.66
2023-03-03T14:09:03.688Z,97179.16
2023-03-03T14:11:50.379Z,97166.56
2023-03-03T14:14:25.068Z,97161.78
2023-03-03T14:16:53.655Z,97159.84
2023-03-03T14:19:40.828Z,97137.84
2023-03-03T14:22:24.366Z,97133.78
2023-03-03T14:25:09.235Z,97118.91
2023-03-03T14:28:05.764Z,97107.25
2023-03-03T14:30:37.872Z,97120.03
2023-03-03T14:33:08.740Z,97094.13
2023-03-03T14:35:41.793Z,97080.94
2023-03-03T14:38:09.780Z,97070.28
2023-03-03T14:40:44.834Z,97057.50
2023-03-03T14:43:27.943Z,97051.81
2023-03-03T14:45:56.864Z,97049.94
2023-03-03T14:48:26.720Z,97035.34
2023-03-03T14:50:59.111Z,97046.00
2023-03-03T14:53:40.193Z,97034.13
2023-03-03T14:56:23.005Z,97041.63
2023-03-03T14:58:54.957Z,97013.78
2023-03-03T15:01:35.540Z,96998.91
2023-03-03T15:04:16.072Z,97006.53
2023-03-03T15:06:49.111Z,96974.38
2023-03-03T15:09:43.724Z,96994.38
2023-03-03T15:12:37.604Z,96998.19
2023-03-03T15:15:14.707Z,96978.31
2023-03-03T15:17:50.555Z,96968.06
2023-03-03T15:20:41.404Z,96961.31
2023-03-03T15:23:32.035Z,96967.19
2023-03-03T15:26:05.447Z,96962.06
2023-03-03T15:29:03.056Z,96951.81
2023-03-03T15:31:49.961Z,96950.25
2023-03-03T15:34:33.473Z,96940.88
2023-03-03T15:37:10.525Z,96939.25
2023-03-03T15:40:03.299Z,96931.72
2023-03-03T15:42:38.592Z,96911.38
2023-03-03T15:45:34.156Z,96904.38
2023-03-03T15:48:20.451Z,96901.84
2023-03-03T15:51:07.227Z,96890.25
2023-03-03T15:53:58.605Z,96904.41
2023-03-03T15:56:35.591Z,96906.44
2023-03-03T15:59:37.874Z,96866.50
2023-03-03T16:02:22.772Z,96832.81
2023-03-03T16:05:15.989Z,96816.09
2023-03-03T16:07:53.640Z,96816.69
2023-03-03T16:10:37.672Z,96833.06
2023-03-03T16:13:28.885Z,96803.69
2023-03-03T16:16:18.661Z,96762.81
2023-03-03T16:19:08.309Z,96750.81
2023-03-03T16:21:54.801Z,96744.38
2023-03-03T16:24:47.918Z,96746.19
2023-03-03T16:27:31.301Z,96751.06
2023-03-03T16:30:23.663Z,96759.88
2023-03-03T16:32:53.694Z,96740.19
2023-03-03T16:35:26.790Z,96713.03
2023-03-03T16:37:57.397Z,96724.72
2023-03-03T16:40:58.808Z,96730.25
2023-03-03T16:43:44.890Z,96737.28
2023-03-03T16:46:36.607Z,96735.97
2023-03-03T16:49:22.464Z,96744.28
2023-03-03T16:51:54.219Z,96750.31
2023-03-03T16:54:37.426Z,96754.16
2023-03-03T16:57:34.234Z,96765.59
2023-03-03T17:00:22.291Z,96762.31
2023-03-03T17:02:52.977Z,96733.19
2023-03-03T17:06:01.067Z,96742.06
2023-03-03T17:09:06.583Z,96794.53
2023-03-03T17:11:38.108Z,96768.53
2023-03-03T17:14:25.284Z,96739.28
2023-03-03T17:16:57.916Z,96796.97
2023-03-03T17:19:38.415Z,96785.59
2023-03-03T17:22:41.095Z,96803.16
2023-03-03T17:25:12.885Z,96792.25
2023-03-03T17:27:59.809Z,96797.38
2023-03-03T17:30:51.262Z,96877.91
2023-03-03T17:33:28.324Z,96837.69
2023-03-03T17:36:18.434Z,96865.78
2023-03-03T17:38:46.328Z,96842.13
2023-03-03T17:41:32.882Z,96887.72
2023-03-03T17:44:14.650Z,96864.88
2023-03-03T17:46:51.975Z,96874.56
2023-03-03T17:49:43.334Z,96881.78
2023-03-03T17:52:11.200Z,96874.31
2023-03-03T17:54:59.582Z,96873.13
2023-03-03T17:57:58.960Z,96849.06
2023-03-03T18:00:52.698Z,96875.97
2023-03-03T18:03:38.973Z,96867.09
2023-03-03T18:06:29.784Z,96857.44
2023-03-03T18:09:35.609Z,96836.06
2023-03-03T18:12:10.934Z,96854.22
2023-03-03T18:15:00.452Z,96860.34
2023-03-03T18:17:31.524Z,96849.94
2023-03-03T18:20:11.370Z,96834.69
2023-03-03T18:22:46.677Z,96824.25
2023-03-03T18:25:16.331Z,96843.25
2023-03-03T18:27:49.062Z,96836.06
2023-03-03T18:30:22.665Z,96851.44
2023-03-03T18:32:56.706Z,96851.78
2023-03-03T18:35:49.656Z,96866.13
2023-03-03T18:38:25.905Z,96879.88
2023-03-03T18:41:12.978Z,96888.00
2023-03-03T18:43:44.515Z,96901.28
2023-03-03T18:46:22.029Z,96911.41
2023-03-03T18:48:55.222Z,96922.19
2023-03-03T18:51:36.236Z,96938.47
2023-03-03T18:54:13.151Z,96983.13
2023-03-03T18:57:05.770Z,97040.47
2023-03-03T18:59:37.004Z,97059.34
2023-03-03T19:02:14.192Z,97075.88
2023-03-03T19:04:55.975Z,97147.72
2023-03-03T19:07:28.503Z,97119.97
2023-03-03T19:10:04.486Z,97157.31
2023-03-03T19:12:46.981Z,97178.81
2023-03-03T19:15:35.274Z,97177.63
2023-03-03T19:18:14.856Z,97188.84
2023-03-03T19:20:45.122Z,97180.44
2023-03-03T19:23:17.336Z,97194.78
2023-03-03T19:25:45.242Z,97205.94
2023-03-03T19:28:16.093Z,97221.56
2023-03-03T19:30:59.574Z,97274.41
2023-03-03T19:33:43.835Z,97278.00
2023-03-03T19:36:26.153Z,97283.75
2023-03-03T19:39:09.354Z,97308.25
2023-03-03T19:41:59.879Z,97310.13
2023-03-03T19:45:01.253Z,97321.34
2023-03-03T19:47:37.313Z,97321.19
2023-03-03T19:50:23.636Z,97344.69
2023-03-03T19:53:00.680Z,97365.56
2023-03-03T19:55:36.229Z,97374.31
2023-03-03T19:58:35.089Z,97394.72
2023-03-03T20:01:54.291Z,97418.19
2023-03-03T20:04:38.634Z,97426.56
2023-03-03T20:07:16.584Z,97432.84
2023-03-03T20:09:53.985Z,97468.78
2023-03-03T20:12:40.342Z,97463.31
2023-03-03T20:15:14.402Z,97496.25
2023-03-03T20:18:11.590Z,97511.19
2023-03-03T20:20:51.639Z,97522.81
2023-03-03T20:24:21.058Z,97529.44
2023-03-03T20:26:57.512Z,97589.13
2023-03-03T20:29:53.846Z,97606.19
2023-03-03T20:32:35.919Z,97639.19
2023-03-03T20:35:21.528Z,97649.53
2023-03-03T20:38:15.133Z,97672.66
2023-03-03T20:40:51.551Z,97693.81
2023-03-03T20:43:34.450Z,97689.53
2023-03-03T20:46:08.710Z,97703.44
2023-03-03T20:48:59.818Z,97719.75
2023-03-03T20:51:33.677Z,97743.47
2023-03-03T20:54:39.471Z,97751.94
2023-03-03T20:57:34.532Z,97738.56
2023-03-03T21:00:08.449Z,97749.75
2023-03-03T21:02:41.949Z,97788.34
2023-03-03T21:05:23.103Z,97819.44
2023-03-03T21:07:58.178Z,97845.84
2023-03-03T21:10:31.078Z,97854.31
2023-03-03T21:13:00.209Z,97866.50
2023-03-03T21:15:30.430Z,97886.44
2023-03-03T21:17:59.346Z,97914.91
2023-03-03T21:20:32.312Z,97941.69
2023-03-03T21:23:01.162Z,97953.22
2023-03-03T21:25:42.027Z,97960.22
2023-03-03T21:28:23.543Z,97973.44
2023-03-03T21:31:09.853Z,97997.28
2023-03-03T21:33:43.908Z,97998.13
2023-03-03T21:36:13.796Z,98015.19
2023-03-03T21:38:42.152Z,98017.81
2023-03-03T21:41:10.185Z,98052.16
2023-03-03T21:43:48.741Z,98074.78
2023-03-03T21:46:24.203Z,98087.69
2023-03-03T21:48:52.412Z,98101.00
2023-03-03T21:51:21.837Z,98113.72
2023-03-03T21:53:49.853Z,98136.88
2023-03-03T21:56:17.740Z,98147.91
2023-03-03T21:58:45.430Z,98151.13
2023-03-03T22:01:13.903Z,98161.66
2023-03-03T22:03:44.521Z,98175.19
2023-03-03T22:06:12.623Z,98192.97
2023-03-03T22:08:40.702Z,98206.53
2023-03-03T22:11:08.436Z,98223.31
2023-03-03T22:13:36.722Z,98237.16
2023-03-03T22:16:04.831Z,98238.28
2023-03-03T22:18:32.911Z,98252.94
2023-03-03T22:21:00.670Z,98254.06
2023-03-03T22:23:28.569Z,98264.00
2023-03-03T22:25:56.368Z,98277.25
2023-03-03T22:28:24.848Z,98277.97
2023-03-03T22:30:52.726Z,98295.72
2023-03-03T22:33:20.890Z,98318.97
2023-03-03T22:35:49.033Z,98326.03
2023-03-03T22:38:17.265Z,98337.22
2023-03-03T22:40:45.225Z,98348.97
2023-03-03T22:43:14.987Z,98354.03
2023-03-03T22:45:43.130Z,98371.72
2023-03-03T22:48:11.984Z,98374.63
2023-03-03T22:50:41.063Z,98395.00
2023-03-03T22:53:08.961Z,98403.69
2023-03-03T22:55:37.773Z,98410.78
2023-03-03T22:58:07.489Z,98429.94
2023-03-03T23:00:40.606Z,98441.94
2023-03-03T23:03:10.098Z,98446.97
2023-03-03T23:05:41.212Z,98452.19
2023-03-03T23:08:11.967Z,98457.69
2023-03-03T23:10:40.480Z,98471.88
2023-03-03T23:13:09.797Z,98473.38
2023-03-03T23:15:38.035Z,98489.00
2023-03-03T23:18:06.279Z,98495.03
2023-03-03T23:20:34.675Z,98507.97
2023-03-03T23:23:03.139Z,98538.75
2023-03-03T23:25:31.301Z,98535.94
2023-03-03T23:28:00.118Z,98556.53
2023-03-03T23:30:28.283Z,98556.19
2023-03-03T23:32:56.657Z,98561.84
2023-03-03T23:35:25.057Z,98576.66
2023-03-03T23:37:53.594Z,98588.59
2023-03-03T23:40:21.902Z,98598.91
2023-03-03T23:42:50.532Z,98605.56
2023-03-03T23:45:18.703Z,98628.97
2023-03-03T23:47:51.445Z,98633.09
2023-03-03T23:50:20.145Z,98660.50
2023-03-03T23:52:48.515Z,98651.03
2023-03-03T23:55:16.904Z,98660.44
2023-03-03T23:57:44.915Z,98679.88
